LTCIOITT

Guest
Details From LTCI - VAN
To OITT - TABRIZ INTL
Flight Number -
Tags generated
Created
Modified
Stats Distance 141 nm / 261 km
Max Altitude 8,600 ft / 2,621 m
Waypoints 3
Social Downloads 1
Likes 0
Share VATSIM

Download

Looking for another format? Having issues loading an existing format? Contact us
Advertisement - Login to hide

Notes

Basic altitude profile: - Ascent Rate: 2500ft/min - Ascent Speed: 250kts - Cruise Altitude: 35000ft - Cruise Speed: 420kts - Descent Rate: 1500ft/min - Descent Speed: 250kts Options: - Use NATs: yes - Use PACOTS: yes - Use low airways: yes - Use high airways: yes

Route

LTCI BORES OITT

ID Type Via Altitude Latitude Longitude Leg Dist Tot Dist Heading (true) Name
O LTCI APT - 0 ft / 0 m 38.46822˚ 43.33230˚ - 0 nm - VAN
BORES FIX - 8,600 ft / 2,621 m 38.43444˚ 45.47000˚ 100 nm 100 nm 90° / 92° -
O OITT APT - 0 ft / 0 m 38.13299˚ 46.23494˚ 40 nm 140 nm 116° / 117° TABRIZ INTL

Altitude Profile

Advertisement - Login to hide

LTCI

Details ICAO LTCI (VAN)
Name VAN
Region Turkey
Timezone Europe/Istanbul (UTC+3.0)
Stats Elevation 5,480 ft / 1,670 m (AMSL)
Location 38.468221° 43.332300°
Runways 1
Magnetic Variation 5.767° E

METAR

LTCI 110150Z 08004KT 9999 FEW040 M07/M10 Q1023 NOSIG

Decode

TAF

Not found

Departure Runways

ID Width Length Bearing (true) Bearing (mag) Surface Threshold Offset Overrun Length
03 148 ft / 45 m 9,018 ft / 2,749 m 37.57° 31.80° Asphalt 0 ft / 0 m 196 ft / 60 m
21 148 ft / 45 m 9,018 ft / 2,749 m 217.59° 211.82° Asphalt 0 ft / 0 m 196 ft / 60 m

OITT

Details ICAO OITT (TBZ)
Name TABRIZ INTL
Region Iran
Timezone Asia/Tehran (UTC+3.5)
Stats Elevation 4,459 ft / 1,359 m (AMSL)
Location 38.132990° 46.234937°
Runways 2
Magnetic Variation 5.631° E

METAR

OITT 110230Z 05004KT CAVOK M06/M09 Q1024 A3025

Decode

TAF

TAF OITT 102300Z 1100/1206 05003MPS 7000 NSC PROB40 1100/1104 4000 BR TEMPO 1108/1115 26009MPS FEW035TCU SCT100

Decode

Destination Runways

ID Width Length Bearing (true) Bearing (mag) Surface Threshold Offset Overrun Length
12L 148 ft / 45 m 11,818 ft / 3,602 m 129.05° 123.42° Asphalt 0 ft / 0 m 355 ft / 108 m
12R 98 ft / 30 m 11,531 ft / 3,515 m 128.97° 123.34° Asphalt 0 ft / 0 m 340 ft / 104 m
30L 98 ft / 30 m 11,531 ft / 3,515 m 308.99° 303.36° Asphalt 0 ft / 0 m 1,130 ft / 344 m
30R 148 ft / 45 m 11,818 ft / 3,602 m 309.07° 303.44° Asphalt 0 ft / 0 m 340 ft / 104 m

Approach Navaids

Runway Type Ident Frequency Range Bearing (true) Bearing (mag) Slope Elevation
30R Localiser ITBZ 109.90 MHz 18 nm / 33 km 309.03° 303.40° - 4,459 ft / 1,359 m (AMSL)
30R Glidescope ITBZ 109.90 MHz 10 nm / 19 km 309.06° 303.43° 3.00° 4,459 ft / 1,359 m (AMSL)
30R DME ITBZ 109.90 MHz 18 nm / 33 km - - - 4,459 ft / 1,359 m (AMSL)